Sunday, July 22, 2018, 12:19 PM EDT
Back to Local

KPTW, Pottstown Limerick Airport

Location: Royersford, PA, United States Lat: 40.233
Local Time: 12:19 PM EDT (16:19 GMT) Lon: -75.55
Time Zone: US/Eastern Elev: 291 ft

Show me the last for .
Show Decoded

2018-07-22 11:54 METAR KPTW 221554Z AUTO 20007KT 10SM SCT018 SCT075 24/19 A2991 RMK AO2 SLP126
                 T02390194 $ =
2018-07-22 11:10 METAR KPTW 221510Z AUTO VRB04KT 10SM BKN016 OVC020 22/20 A2992 RMK AO2 T02220200
                 $ =
2018-07-22 10:54 METAR KPTW 221454Z AUTO VRB05KT 9SM BKN014 OVC020 22/20 A2991 RMK AO2 SLP126
                 T02170200 51017 $ =
2018-07-22 10:29 METAR KPTW 221429Z AUTO VRB05KT 10SM BKN014 22/19 A2990 RMK AO2 T02170194 =
2018-07-22 09:54 METAR KPTW 221354Z AUTO 17008KT 150V210 10SM OVC015 21/19 A2990 RMK AO2 SLP119
                 T02110194 =
2018-07-22 09:52 METAR KPTW 221352Z AUTO 17008KT 10SM OVC015 21/19 A2989 RMK AO2 =
2018-07-22 08:54 METAR KPTW 221254Z AUTO 19005KT 10SM OVC010 20/19 A2986 RMK AO2 CIG 006V015
                 SLP109 T02000194 =
2018-07-22 08:44 METAR KPTW 221244Z AUTO 19004KT 10SM OVC010 20/19 A2986 RMK AO2 CIG 006V013
                 T02000194 =
2018-07-22 08:04 METAR KPTW 221204Z AUTO 18005KT 10SM OVC009 19/19 A2984 RMK AO2 CIG 007V012
                 T01940189 =
2018-07-22 07:54 METAR KPTW 221154Z AUTO VRB04KT 10SM OVC010 19/19 A2984 RMK AO2 SLP099 60007
                 70098 T01940189 10222 20189 51051 =
2018-07-22 07:35 METAR KPTW 221135Z AUTO 20006KT 10SM BKN011 OVC018 19/18 A2982 RMK AO2 T01940183
                 =
2018-07-22 06:54 METAR KPTW 221054Z AUTO 20007KT 170V230 10SM SCT012 OVC022 20/19 A2979 RMK AO2
                 SLP085 T02000194 =
2018-07-22 06:47 METAR KPTW 221047Z AUTO 21007KT 10SM BKN013 BKN018 OVC022 20/20 A2979 RMK AO2
                 T02000200 =
2018-07-22 05:54 METAR KPTW 220954Z AUTO 18007KT 9SM FEW009 OVC016 21/21 A2974 RMK AO2
                 RAE26B33E45 PRESRR SLP068 P0002 T02060206 =
2018-07-22 05:31 METAR KPTW 220931Z AUTO VRB06KT 10SM FEW004 BKN015 OVC020 21/21 A2971 RMK AO2
                 RAE26 P0002 T02110211 =
2018-07-22 05:23 METAR KPTW 220923Z AUTO VRB05KT 6SM -RA BR BKN007 BKN015 OVC019 21/21 A2971 RMK
                 AO2 P0002 T02110211 =
2018-07-22 05:12 METAR KPTW 220912Z AUTO VRB05KT 2SM -RA BR OVC007 21/21 A2970 RMK AO2 P0001
                 T02110211 =
2018-07-22 04:54 METAR KPTW 220854Z AUTO VRB06KT 4SM -RA BR OVC006 21/21 A2968 RMK AO2 CIG
                 005V009 SLP048 P0002 60005 T02110211 53010 =
2018-07-22 04:39 METAR KPTW 220839Z AUTO 13007KT 090V170 3SM -RA BR BKN006 OVC010 21/21 A2968 RMK
                 AO2 P0002 T02110211 =
2018-07-22 04:30 METAR KPTW 220830Z AUTO VRB04KT 2 1/2SM -RA BR OVC006 21/21 A2967 RMK AO2 CIG
                 005V010 P0002 T02110211 =
2018-07-22 04:01 METAR KPTW 220801Z AUTO VRB06KT 5SM -RA BR OVC007 21/21 A2966 RMK AO2 CIG
                 005V010 P0001 T02110211 =
2018-07-22 03:54 METAR KPTW 220754Z AUTO VRB05KT 2 1/2SM -RA BR BKN007 OVC013 22/22 A2965 RMK AO2
                 SLP038 P0002 T02170217 =
2018-07-22 03:38 METAR KPTW 220738Z AUTO VRB06KT 4SM -RA BR BKN007 OVC017 22/22 A2965 RMK AO2 CIG
                 006V012 P0001 T02170217 =
2018-07-22 03:24 METAR KPTW 220724Z AUTO 2SM -RA BR OVC009 22/22 A2965 RMK AO2 CIG 006V014 P0001
                 T02170217 =
2018-07-22 02:54 METAR KPTW 220654Z AUTO 10007G20KT 060V140 5SM -RA BR OVC009 22/22 A2964 RMK AO2
                 CIG 007V011 SLP033 P0001 T02170217 =
2018-07-22 02:29 METAR KPTW 220629Z AUTO 09007KT 050V140 6SM -RA BR BKN009 OVC014 22/22 A2964 RMK
                 AO2 P0000 T02170217 =
2018-07-22 02:06 METAR KPTW 220606Z AUTO 08010G23KT 4SM -RA BR BKN010 BKN018 OVC029 21/21 A2964
                 RMK AO2 P0000 T02110211 =
2018-07-22 01:54 METAR KPTW 220554Z AUTO 08011G23KT 4SM -RA BR BKN008 BKN011 OVC027 21/21 A2964
                 RMK AO2 PK WND 07026/0514 SLP034 P0022 60048 T02110211 10211 20150 55040 =
2018-07-22 01:49 METAR KPTW 220549Z AUTO 07013G23KT 4SM -RA BR BKN008 OVC013 21/21 A2964 RMK AO2
                 PK WND 07026/0514 P0022 =
2018-07-22 01:39 METAR KPTW 220539Z AUTO 07014G25KT 3SM -RA BR SCT007 OVC012 21/21 A2965 RMK AO2
                 PK WND 07026/0514 P0021 T02060206 =
2018-07-22 01:33 METAR KPTW 220533Z AUTO 09010G20KT 2SM RA BR BKN007 OVC014 21/21 A2966 RMK AO2
                 PK WND 07026/0514 P0019 T02060206 =
2018-07-22 01:11 METAR KPTW 220511Z AUTO 06015G22KT 1 1/2SM +RA BR SCT007 BKN012 OVC018 20/20
                 A2967 RMK AO2 P0010 T02000200 =
2018-07-22 01:02 METAR KPTW 220502Z AUTO 06012G22KT 2 1/2SM -RA BR BKN008 OVC014 19/19 A2967 RMK
                 AO2 P0001 T01940194 =
2018-07-22 00:54 METAR KPTW 220454Z AUTO 06014G26KT 3SM -RA BR BKN008 BKN014 OVC023 19/19 A2968
                 RMK AO2 PK WND 05026/0445 SLP047 P0011 T01940194 402220150 =
2018-07-21 23:54 METAR KPTW 220354Z AUTO 04016G21KT 5SM -RA BR BKN007 OVC013 18/18 A2976 RMK AO2
                 SLP074 P0006 T01830183 =
2018-07-21 22:54 METAR KPTW 220254Z AUTO 06013G18KT 10SM -RA BKN007 OVC011 18/18 A2981 RMK AO2
                 SLP090 P0001 60009 T01780178 58031 =
2018-07-21 22:44 METAR KPTW 220244Z AUTO 06010G19KT 7SM -RA OVC009 17/17 A2982 RMK AO2 CIG
                 006V012 P0001 T01720172 =
2018-07-21 21:54 METAR KPTW 220154Z AUTO 06010G17KT 4SM -RA BR OVC010 17/17 A2985 RMK AO2 CIG
                 006V013 SLP105 P0004 T01670167 =
2018-07-21 21:26 METAR KPTW 220126Z AUTO 06010G19KT 4SM -RA BR OVC014 16/16 A2987 RMK AO2 P0001
                 T01610161 =
2018-07-21 20:54 METAR KPTW 220054Z AUTO 06013G19KT 6SM -RA BR FEW010 BKN022 OVC036 16/16 A2988
                 RMK AO2 SLP113 P0004 T01610161 =
2018-07-21 20:40 METAR KPTW 220040Z AUTO 06014G19KT 4SM -RA BR FEW009 BKN020 OVC085 16/16 A2988
                 RMK AO2 P0004 T01610156 =
2018-07-21 20:08 METAR KPTW 220008Z AUTO 06013G23KT 3SM -RA BR BKN046 BKN080 OVC100 16/15 A2990
                 RMK AO2 P0002 T01560150 =
2018-07-21 19:54 METAR KPTW 212354Z AUTO 05013G20KT 2 1/2SM -RA BR FEW046 BKN070 OVC090 15/15
                 A2990 RMK AO2 SLP122 P0006 60038 T01500150 10206 20150 58022 =
2018-07-21 18:54 METAR KPTW 212254Z AUTO 06011G21KT 4SM -RA BR FEW010 SCT014 OVC035 17/17 A2993
                 RMK AO2 SLP133 P0008 T01670167 =
2018-07-21 18:21 METAR KPTW 212221Z AUTO 06009G15KT 3SM RA BR BKN014 BKN046 OVC070 17/17 A2994
                 RMK AO2 P0005 T01720172 =
2018-07-21 17:54 METAR KPTW 212154Z AUTO 05010KT 4SM RA BR OVC047 18/17 A2995 RMK AO2 SLP137
                 P0009 T01780172 =
2018-07-21 17:19 METAR KPTW 212119Z AUTO 06008KT 4SM RA BR OVC046 18/17 A2997 RMK AO2 P0005
                 T01780172 =
2018-07-21 17:10 METAR KPTW 212110Z AUTO 07005KT 2 1/2SM RA BR OVC048 18/17 A2997 RMK AO2 P0004
                 T01780172 =
2018-07-21 16:54 METAR KPTW 212054Z AUTO 06006KT 3SM RA BR OVC048 18/17 A2997 RMK AO2 SLP145
                 P0008 60015 T01830172 56014 =
2018-07-21 15:54 METAR KPTW 211954Z AUTO 07007G16KT 4SM -RA BR FEW043 OVC060 19/17 A2998 RMK AO2
                 SLP147 P0004 T01890167 =
2018-07-21 14:54 METAR KPTW 211854Z AUTO 07006KT 9SM -RA FEW034 OVC060 21/18 A2999 RMK AO2
                 RAE37B53 SLP150 P0003 T02060178 =
2018-07-21 13:54 METAR KPTW 211754Z AUTO 05005KT 3SM RA BR BKN090 OVC110 19/18 A3001 RMK AO2
                 RAB09 SLP158 P0005 60005 T01940178 10222 20189 58018 =
2018-07-21 12:54 METAR KPTW 211654Z AUTO 05007KT 10SM FEW050 SCT080 OVC110 21/16 A3003 RMK AO2
                 RAB11E52 SLP165 P0000 T02060161 =

Support USWX by starting your Amazon purchase here.